createdAt,value
2018-05-13T00:03:27.946Z,6.07
2018-05-13T00:08:28.973Z,6.03
2018-05-13T00:13:30.037Z,5.97
2018-05-13T00:18:31.043Z,5.80
2018-05-13T00:23:32.047Z,6.03
2018-05-13T00:28:33.046Z,6.07
2018-05-13T00:33:34.022Z,5.83
2018-05-13T00:38:35.026Z,5.07
2018-05-13T00:43:36.030Z,6.10
2018-05-13T00:48:37.034Z,6.07
2018-05-13T00:53:38.037Z,5.70
2018-05-13T00:58:39.035Z,5.47
2018-05-13T01:03:40.758Z,5.67
2018-05-13T01:08:41.747Z,6.00
2018-05-13T01:13:42.760Z,6.60
2018-05-13T01:18:43.769Z,6.43
2018-05-13T01:23:45.512Z,5.80
2018-05-13T01:28:46.530Z,6.03
2018-05-13T01:33:47.562Z,6.80
2018-05-13T01:38:49.312Z,5.93
2018-05-13T01:43:50.346Z,5.70
2018-05-13T01:48:51.347Z,6.73
2018-05-13T01:53:52.334Z,6.27
2018-05-13T01:58:53.350Z,6.60
2018-05-13T02:03:54.347Z,5.70
2018-05-13T02:08:55.365Z,6.10
2018-05-13T02:13:56.366Z,6.10
2018-05-13T02:18:57.383Z,6.33
2018-05-13T02:23:58.383Z,6.00
2018-05-13T02:28:59.410Z,6.00
2018-05-13T02:34:01.194Z,6.17
2018-05-13T02:39:02.946Z,6.20
2018-05-13T02:44:03.961Z,7.23
2018-05-13T02:49:04.966Z,6.97
2018-05-13T02:54:05.970Z,7.63
2018-05-13T02:59:06.982Z,7.40
2018-05-13T03:04:07.986Z,7.27
2018-05-13T03:09:08.994Z,7.93
2018-05-13T03:14:10.019Z,7.47
2018-05-13T03:19:11.049Z,7.40
2018-05-13T03:24:12.055Z,7.20
2018-05-13T03:29:13.069Z,7.70
2018-05-13T03:34:14.078Z,7.87
2018-05-13T03:39:15.078Z,7.90
2018-05-13T03:44:16.102Z,7.80
2018-05-13T03:49:17.110Z,7.47
2018-05-13T03:54:18.104Z,6.90
2018-05-13T03:59:19.103Z,6.57
2018-05-13T04:04:20.093Z,7.03
2018-05-13T04:09:33.483Z,6.97
2018-05-13T04:14:46.894Z,7.20
2018-05-13T04:19:48.746Z,6.70
2018-05-13T04:24:49.749Z,6.87
2018-05-13T04:29:50.752Z,5.83
2018-05-13T04:34:52.499Z,5.97
2018-05-13T04:39:53.522Z,5.63
2018-05-13T04:44:54.525Z,6.10
2018-05-13T04:49:56.258Z,5.23
2018-05-13T04:54:57.282Z,5.90
2018-05-13T04:59:58.295Z,5.53
2018-05-13T05:04:59.286Z,5.97
2018-05-13T05:10:00.315Z,5.87
2018-05-13T05:15:01.356Z,6.20
2018-05-13T05:20:02.579Z,6.30
2018-05-13T05:25:03.610Z,7.23
2018-05-13T05:30:04.812Z,6.73
2018-05-13T05:35:06.077Z,7.40
2018-05-13T05:40:07.143Z,7.03
2018-05-13T05:45:08.158Z,7.80
2018-05-13T05:50:10.071Z,6.63
2018-05-13T05:55:11.110Z,6.47
2018-05-13T06:00:12.142Z,6.97
2018-05-13T06:05:13.244Z,5.47
2018-05-13T06:10:14.274Z,5.20
2018-05-13T06:15:16.050Z,4.80
2018-05-13T06:20:17.133Z,5.03
2018-05-13T06:25:18.206Z,4.60
2018-05-13T06:30:19.211Z,4.07
2018-05-13T06:35:20.262Z,5.43
2018-05-13T06:40:21.309Z,5.13
2018-05-13T06:45:22.414Z,4.43
2018-05-13T06:50:23.345Z,4.87
2018-05-13T06:55:24.349Z,4.70
2018-05-13T07:00:25.343Z,3.97
2018-05-13T07:05:26.375Z,4.10
2018-05-13T07:10:27.452Z,4.00
2018-05-13T07:15:28.362Z,4.00
2018-05-13T07:20:30.102Z,4.13
2018-05-13T07:25:31.097Z,4.70
2018-05-13T07:30:32.099Z,4.60
2018-05-13T07:35:33.089Z,5.83
2018-05-13T07:40:34.834Z,6.50
2018-05-13T07:45:35.866Z,6.77
2018-05-13T07:50:36.851Z,7.10
2018-05-13T07:55:37.829Z,7.00
2018-05-13T08:00:38.832Z,7.37
2018-05-13T08:05:39.857Z,7.50
2018-05-13T08:10:40.849Z,6.70
2018-05-13T08:15:41.847Z,6.40
2018-05-13T08:20:42.859Z,6.00
2018-05-13T08:25:43.858Z,5.90
2018-05-13T08:30:44.877Z,5.70
2018-05-13T08:35:46.094Z,6.20
2018-05-13T08:40:47.135Z,5.23
2018-05-13T08:45:48.133Z,6.50
2018-05-13T08:50:49.883Z,5.80
2018-05-13T08:55:50.886Z,6.00
2018-05-13T09:00:51.897Z,5.70
2018-05-13T09:05:52.898Z,5.77
2018-05-13T09:10:53.894Z,5.33
2018-05-13T09:15:54.905Z,5.40
2018-05-13T09:20:56.724Z,5.40
2018-05-13T09:25:57.684Z,5.90
2018-05-13T09:30:58.697Z,5.67
2018-05-13T09:36:00.414Z,5.33
2018-05-13T09:41:01.412Z,5.00
2018-05-13T09:46:03.161Z,5.67
2018-05-13T09:51:04.158Z,5.83
2018-05-13T09:56:05.181Z,4.80
2018-05-13T10:01:06.194Z,4.17
2018-05-13T10:06:07.194Z,4.20
2018-05-13T10:11:08.182Z,4.17
2018-05-13T10:16:09.917Z,3.70
2018-05-13T10:21:10.929Z,4.00
2018-05-13T10:26:11.970Z,4.37
2018-05-13T10:31:12.989Z,4.10
2018-05-13T10:36:13.981Z,4.00
2018-05-13T10:41:15.810Z,5.00
2018-05-13T10:46:16.817Z,4.60
2018-05-13T10:51:18.547Z,4.97
2018-05-13T10:56:19.563Z,4.70
2018-05-13T11:01:20.626Z,5.50
2018-05-13T11:06:21.626Z,5.20
2018-05-13T11:11:22.626Z,5.67
2018-05-13T11:16:24.385Z,5.23
2018-05-13T11:21:25.397Z,4.97
2018-05-13T11:26:26.387Z,5.47
2018-05-13T11:31:27.405Z,5.00
2018-05-13T11:36:28.439Z,5.73
2018-05-13T11:41:30.186Z,5.63
2018-05-13T11:46:31.203Z,6.17
2018-05-13T11:51:32.230Z,4.40
2018-05-13T11:56:33.294Z,4.73
2018-05-13T12:01:34.266Z,3.70
2018-05-13T12:06:35.289Z,4.20
2018-05-13T12:11:36.386Z,3.53
2018-05-13T12:16:37.401Z,4.10
2018-05-13T12:21:38.395Z,4.47
2018-05-13T12:26:39.378Z,5.47
2018-05-13T12:31:40.390Z,6.23
2018-05-13T12:36:42.176Z,5.23
2018-05-13T12:41:43.927Z,5.53
2018-05-13T12:46:44.957Z,5.77
2018-05-13T12:51:46.003Z,5.13
2018-05-13T12:56:47.078Z,4.90
2018-05-13T13:01:48.109Z,4.77
2018-05-13T13:06:49.153Z,5.00
2018-05-13T13:11:50.187Z,4.50
2018-05-13T13:16:51.961Z,4.00
2018-05-13T13:21:53.044Z,3.97
2018-05-13T13:26:54.070Z,4.77
2018-05-13T13:31:55.154Z,3.73
2018-05-13T13:36:56.136Z,3.40
2018-05-13T13:41:57.155Z,2.90
2018-05-13T13:46:58.195Z,4.37
2018-05-13T13:51:59.234Z,6.47
2018-05-13T13:57:00.285Z,5.07
2018-05-13T14:02:01.326Z,2.60
2018-05-13T14:07:02.351Z,2.83
2018-05-13T14:12:11.104Z,2.50
2018-05-13T14:17:12.137Z,2.30
2018-05-13T14:22:13.197Z,1.80
2018-05-13T14:27:14.230Z,2.30
2018-05-13T14:32:15.271Z,2.10
2018-05-13T14:37:16.344Z,2.20
2018-05-13T14:42:17.378Z,2.27
2018-05-13T14:47:18.407Z,2.60
2018-05-13T14:52:19.491Z,3.53
2018-05-13T14:57:20.512Z,3.20
2018-05-13T15:02:21.523Z,2.90
2018-05-13T15:07:28.631Z,3.17
2018-05-13T15:12:29.634Z,3.37
2018-05-13T15:17:32.100Z,3.20
2018-05-13T15:22:35.544Z,2.93
2018-05-13T15:27:36.458Z,3.00
2018-05-13T15:32:37.473Z,3.10
2018-05-13T15:37:38.487Z,2.97
2018-05-13T15:42:39.496Z,2.30
2018-05-13T15:47:41.218Z,2.40
2018-05-13T15:52:42.233Z,2.30
2018-05-13T15:57:43.252Z,2.27
2018-05-13T16:02:44.278Z,2.50
2018-05-13T16:07:45.354Z,2.47
2018-05-13T16:12:46.303Z,2.40
2018-05-13T16:17:47.346Z,2.27
2018-05-13T16:22:48.346Z,2.10
2018-05-13T16:27:49.439Z,2.07
2018-05-13T16:32:50.450Z,1.60
2018-05-13T16:37:51.558Z,2.00
2018-05-13T16:42:52.582Z,1.87
2018-05-13T16:47:53.574Z,2.10
2018-05-13T16:52:54.590Z,7.10
2018-05-13T16:57:55.587Z,2.00
2018-05-13T17:02:56.682Z,1.90
2018-05-13T17:07:57.699Z,1.90
2018-05-13T17:12:59.512Z,2.07
2018-05-13T17:18:00.614Z,2.13
2018-05-13T17:23:01.666Z,2.07
2018-05-13T17:28:03.445Z,2.17
2018-05-13T17:33:05.275Z,2.40
2018-05-13T17:38:06.312Z,2.37
2018-05-13T17:43:07.343Z,2.30
2018-05-13T17:48:09.158Z,2.67
2018-05-13T17:53:10.347Z,2.30
2018-05-13T17:58:11.375Z,2.40
2018-05-13T18:03:12.504Z,2.83
2018-05-13T18:08:13.518Z,2.60
2018-05-13T18:13:15.591Z,2.80
2018-05-13T18:18:16.642Z,2.90
2018-05-13T18:23:17.726Z,3.03
2018-05-13T18:28:18.758Z,3.20
2018-05-13T18:33:19.801Z,3.40
2018-05-13T18:38:20.830Z,2.90
2018-05-13T18:43:22.595Z,3.07
2018-05-13T18:48:23.667Z,3.07
2018-05-13T18:53:24.758Z,3.30
2018-05-13T18:58:25.835Z,3.90
2018-05-13T19:03:27.324Z,4.60
2018-05-13T19:08:28.571Z,4.50
2018-05-13T19:13:29.626Z,13.63
2018-05-13T19:18:30.722Z,5.20
2018-05-13T19:23:31.759Z,4.83
2018-05-13T19:28:32.819Z,4.93
2018-05-13T19:33:33.872Z,5.37
2018-05-13T19:38:34.909Z,5.50
2018-05-13T19:43:35.934Z,5.90
2018-05-13T19:48:37.788Z,5.73
2018-05-13T19:53:38.791Z,6.77
2018-05-13T19:58:39.947Z,6.27
2018-05-13T20:03:41.169Z,7.57
2018-05-13T20:08:42.773Z,6.20
2018-05-13T20:13:43.805Z,5.93
2018-05-13T20:18:44.850Z,6.10
2018-05-13T20:23:45.876Z,6.57
2018-05-13T20:28:46.925Z,6.67
2018-05-13T20:33:48.141Z,6.50
2018-05-13T20:38:49.183Z,6.40
2018-05-13T20:43:50.249Z,6.97
2018-05-13T20:48:51.279Z,6.03
2018-05-13T20:53:52.305Z,6.87
2018-05-13T20:58:53.322Z,5.60
2018-05-13T21:03:54.345Z,6.30
2018-05-13T21:08:55.387Z,6.00
2018-05-13T21:13:56.428Z,6.30
2018-05-13T21:18:58.222Z,6.53
2018-05-13T21:23:59.330Z,6.10
2018-05-13T21:29:00.351Z,6.00
2018-05-13T21:34:01.390Z,5.77
2018-05-13T21:39:02.443Z,5.63
2018-05-13T21:44:03.527Z,5.30
2018-05-13T21:49:04.558Z,4.17
2018-05-13T21:54:06.342Z,4.60
2018-05-13T21:59:08.114Z,4.30
2018-05-13T22:04:09.870Z,4.57
2018-05-13T22:09:10.919Z,4.17
2018-05-13T22:14:11.913Z,3.47
2018-05-13T22:19:12.935Z,3.90
2018-05-13T22:24:13.962Z,3.43
2018-05-13T22:29:15.034Z,4.20
2018-05-13T22:34:16.035Z,3.90
2018-05-13T22:39:17.835Z,2.93
2018-05-13T22:44:18.869Z,2.30
2018-05-13T22:49:20.626Z,2.43
2018-05-13T22:54:21.637Z,2.60
2018-05-13T22:59:22.677Z,2.90
2018-05-13T23:04:23.679Z,3.13
2018-05-13T23:09:24.714Z,2.90
2018-05-13T23:14:25.776Z,2.53
2018-05-13T23:19:26.770Z,2.73
2018-05-13T23:24:27.767Z,2.90
2018-05-13T23:29:29.505Z,2.83
2018-05-13T23:34:30.594Z,3.07
2018-05-13T23:39:31.542Z,3.33
2018-05-13T23:44:33.305Z,3.30
2018-05-13T23:49:34.318Z,3.33
2018-05-13T23:54:35.344Z,3.60
2018-05-13T23:59:36.494Z,3.03
